createdAt,value
2017-08-18T00:00:59.076Z,19.53
2017-08-18T00:03:26.544Z,18.50
2017-08-18T00:05:54.005Z,12.13
2017-08-18T00:08:22.264Z,19.10
2017-08-18T00:10:49.734Z,23.80
2017-08-18T00:13:17.296Z,13.90
2017-08-18T00:15:44.767Z,17.73
2017-08-18T00:18:12.995Z,20.93
2017-08-18T00:20:40.488Z,12.50
2017-08-18T00:23:08.041Z,14.90
2017-08-18T00:25:36.216Z,13.33
2017-08-18T00:28:03.775Z,20.50
2017-08-18T00:30:32.047Z,17.40
2017-08-18T00:32:59.511Z,20.70
2017-08-18T00:35:27.747Z,17.63
2017-08-18T00:37:55.224Z,19.47
2017-08-18T00:40:22.687Z,23.50
2017-08-18T00:42:50.143Z,16.17
2017-08-18T00:45:17.615Z,18.53
2017-08-18T00:47:45.840Z,18.67
2017-08-18T00:50:13.308Z,16.83
2017-08-18T00:52:40.801Z,15.23
2017-08-18T00:55:09.035Z,14.67
2017-08-18T00:57:36.503Z,20.73
2017-08-18T01:00:03.988Z,18.63
2017-08-18T01:02:32.218Z,14.60
2017-08-18T01:04:59.742Z,14.07
2017-08-18T01:07:27.970Z,21.10
2017-08-18T01:09:55.451Z,14.97
2017-08-18T01:12:23.012Z,24.03
2017-08-18T01:14:51.256Z,19.37
2017-08-18T01:17:18.754Z,22.20
2017-08-18T01:19:46.996Z,19.63
2017-08-18T01:22:15.279Z,13.73
2017-08-18T01:24:42.738Z,14.47
2017-08-18T01:27:10.190Z,11.40
2017-08-18T01:29:37.763Z,20.73
2017-08-18T01:32:05.323Z,18.90
2017-08-18T01:34:33.564Z,10.60
2017-08-18T01:37:01.052Z,14.87
2017-08-18T01:39:28.603Z,15.50
2017-08-18T01:41:56.068Z,19.10
2017-08-18T01:44:24.321Z,19.37
2017-08-18T01:46:51.791Z,19.83
2017-08-18T01:49:19.251Z,17.90
2017-08-18T01:51:46.815Z,15.07
2017-08-18T01:54:14.378Z,22.80
2017-08-18T01:56:41.834Z,15.80
2017-08-18T01:59:10.080Z,14.60
2017-08-18T02:01:37.538Z,16.80
2017-08-18T02:04:05.014Z,15.30
2017-08-18T02:06:32.579Z,20.93
2017-08-18T02:09:00.846Z,19.60
2017-08-18T02:11:28.302Z,16.60
2017-08-18T02:13:55.776Z,14.57
2017-08-18T02:16:24.032Z,13.10
2017-08-18T02:18:51.500Z,20.00
2017-08-18T02:21:19.731Z,14.87
2017-08-18T02:23:47.184Z,11.17
2017-08-18T02:26:14.678Z,13.23
2017-08-18T02:28:42.159Z,18.23
2017-08-18T02:31:10.388Z,13.83
2017-08-18T02:33:37.866Z,19.83
2017-08-18T02:36:05.423Z,10.47
2017-08-18T02:38:33.787Z,18.37
2017-08-18T02:41:01.248Z,21.10
2017-08-18T02:43:28.818Z,15.03
2017-08-18T02:45:56.284Z,13.63
2017-08-18T02:48:23.739Z,18.37
2017-08-18T02:50:51.975Z,27.10
2017-08-18T02:53:19.466Z,19.40
2017-08-18T02:55:47.027Z,17.93
2017-08-18T02:58:15.081Z,20.00
2017-08-18T03:00:42.555Z,13.10
2017-08-18T03:03:10.419Z,17.00
2017-08-18T03:05:37.889Z,19.90
2017-08-18T03:08:06.167Z,20.30
2017-08-18T03:10:35.751Z,17.63
2017-08-18T03:13:03.223Z,17.60
2017-08-18T03:15:31.448Z,11.33
2017-08-18T03:17:58.923Z,15.40
2017-08-18T03:20:26.387Z,24.83
2017-08-18T03:22:53.844Z,19.00
2017-08-18T03:25:21.306Z,16.00
2017-08-18T03:27:48.874Z,24.33
2017-08-18T03:30:16.441Z,14.07
2017-08-18T03:32:44.709Z,14.10
2017-08-18T03:35:12.179Z,17.67
2017-08-18T03:37:40.422Z,19.07
2017-08-18T03:40:07.911Z,15.10
2017-08-18T03:42:36.172Z,21.30
2017-08-18T03:45:03.636Z,20.97
2017-08-18T03:47:31.868Z,18.80
2017-08-18T03:49:59.388Z,26.80
2017-08-18T03:52:26.854Z,16.73
2017-08-18T03:54:54.345Z,18.70
2017-08-18T03:57:21.816Z,23.27
2017-08-18T03:59:49.283Z,16.80
2017-08-18T04:02:16.761Z,17.47
2017-08-18T04:04:44.308Z,14.40
2017-08-18T04:07:11.876Z,21.47
2017-08-18T04:09:40.099Z,24.77
2017-08-18T04:12:07.587Z,22.20
2017-08-18T04:14:35.892Z,27.60
2017-08-18T04:17:04.143Z,18.70
2017-08-18T04:19:31.671Z,18.43
2017-08-18T04:21:59.131Z,16.50
2017-08-18T04:24:26.607Z,21.47
2017-08-18T04:26:54.073Z,18.97
2017-08-18T04:29:21.527Z,18.77
2017-08-18T04:31:49.012Z,23.97
2017-08-18T04:34:17.255Z,24.80
2017-08-18T04:36:44.729Z,25.90
2017-08-18T04:39:12.972Z,19.10
2017-08-18T04:41:40.436Z,30.97
2017-08-18T04:44:07.907Z,28.33
2017-08-18T04:46:36.289Z,24.80
2017-08-18T04:49:03.793Z,23.43
2017-08-18T04:51:31.298Z,20.53
2017-08-18T04:53:58.769Z,25.50
2017-08-18T04:56:27.010Z,28.47
2017-08-18T04:58:55.207Z,25.93
2017-08-18T05:01:50.422Z,27.33
2017-08-18T05:04:18.665Z,18.23
2017-08-18T05:06:46.123Z,22.77
2017-08-18T05:09:14.244Z,18.23
2017-08-18T05:11:41.725Z,20.33
2017-08-18T05:14:09.236Z,20.53
2017-08-18T05:16:36.792Z,26.17
2017-08-18T05:19:04.263Z,20.43
2017-08-18T05:21:32.500Z,23.73
2017-08-18T05:23:59.972Z,24.70
2017-08-18T05:26:27.433Z,25.60
2017-08-18T05:28:55.473Z,25.20
2017-08-18T05:31:22.956Z,24.23
2017-08-18T05:33:50.423Z,22.13
2017-08-18T05:36:17.915Z,19.57
2017-08-18T05:38:45.436Z,31.10
2017-08-18T05:41:16.896Z,18.40
2017-08-18T05:43:45.117Z,11.37
2017-08-18T05:46:12.689Z,19.20
2017-08-18T05:48:40.159Z,18.93
2017-08-18T05:51:07.685Z,16.90
2017-08-18T05:53:35.935Z,31.40
2017-08-18T05:56:03.407Z,23.47
2017-08-18T05:58:30.965Z,21.30
2017-08-18T06:00:58.439Z,16.50
2017-08-18T06:03:25.908Z,22.53
2017-08-18T06:05:54.170Z,16.63
2017-08-18T06:08:21.972Z,27.03
2017-08-18T06:10:49.455Z,20.87
2017-08-18T06:13:17.692Z,17.70
2017-08-18T06:15:45.187Z,18.57
2017-08-18T06:18:13.488Z,25.73
2017-08-18T06:20:40.966Z,20.40
2017-08-18T06:23:08.431Z,19.73
2017-08-18T06:25:35.890Z,22.60
2017-08-18T06:28:03.383Z,17.30
2017-08-18T06:30:31.628Z,22.27
2017-08-18T06:32:59.198Z,21.83
2017-08-18T06:35:26.675Z,23.07
2017-08-18T06:37:55.427Z,16.30
2017-08-18T06:40:22.910Z,16.37
2017-08-18T06:42:51.140Z,18.10
2017-08-18T06:45:18.633Z,17.97
2017-08-18T06:47:46.191Z,21.40
2017-08-18T06:50:13.670Z,18.23
2017-08-18T06:52:41.918Z,18.20
2017-08-18T06:55:09.380Z,12.13
2017-08-18T06:57:36.845Z,16.97
2017-08-18T07:00:05.071Z,13.47
2017-08-18T07:02:32.527Z,17.73
2017-08-18T07:05:00.028Z,15.43
2017-08-18T07:07:27.584Z,19.70
2017-08-18T07:09:56.815Z,18.50
2017-08-18T07:12:24.284Z,18.73
2017-08-18T07:14:51.778Z,16.03
2017-08-18T07:17:19.251Z,13.53
2017-08-18T07:19:46.815Z,13.77
2017-08-18T07:22:14.356Z,15.60
2017-08-18T07:24:41.824Z,23.80
2017-08-18T07:27:09.305Z,22.73
2017-08-18T07:29:36.791Z,15.33
2017-08-18T07:32:04.260Z,18.40
2017-08-18T07:34:31.726Z,16.13
2017-08-18T07:36:59.230Z,15.83
2017-08-18T07:39:27.475Z,14.17
2017-08-18T07:41:55.351Z,17.87
2017-08-18T07:44:22.873Z,20.00
2017-08-18T07:46:50.354Z,17.73
2017-08-18T07:49:17.819Z,15.07
2017-08-18T07:51:45.291Z,16.60
2017-08-18T07:54:13.564Z,20.60
2017-08-18T07:56:41.804Z,14.50
2017-08-18T07:59:09.268Z,12.50
2017-08-18T08:01:36.728Z,21.00
2017-08-18T08:04:04.214Z,18.40
2017-08-18T08:06:32.457Z,17.80
2017-08-18T08:08:59.931Z,13.73
2017-08-18T08:11:27.400Z,17.93
2017-08-18T08:13:54.889Z,14.80
2017-08-18T08:16:22.361Z,18.70
2017-08-18T08:18:49.832Z,17.67
2017-08-18T08:21:17.320Z,21.20
2017-08-18T08:23:44.879Z,14.60
2017-08-18T08:26:12.434Z,12.40
2017-08-18T08:28:40.008Z,17.13
2017-08-18T08:31:08.350Z,10.73
2017-08-18T08:33:36.660Z,19.87
2017-08-18T08:36:04.936Z,13.23
2017-08-18T08:38:33.192Z,13.63
2017-08-18T08:41:00.652Z,10.10
2017-08-18T08:43:28.424Z,16.40
2017-08-18T08:45:55.902Z,11.63
2017-08-18T08:48:23.385Z,16.00
2017-08-18T08:50:51.195Z,15.10
2017-08-18T08:53:18.655Z,12.87
2017-08-18T08:55:46.985Z,16.43
2017-08-18T08:58:15.191Z,12.50
2017-08-18T09:00:42.647Z,15.27
2017-08-18T09:03:10.144Z,11.63
2017-08-18T09:05:38.376Z,12.43
2017-08-18T09:08:05.852Z,11.97
2017-08-18T09:10:33.353Z,10.13
2017-08-18T09:13:00.844Z,12.13
2017-08-18T09:15:28.337Z,9.90
2017-08-18T09:17:56.608Z,11.23
2017-08-18T09:20:25.179Z,17.97
2017-08-18T09:22:52.658Z,9.40
2017-08-18T09:25:20.887Z,12.07
2017-08-18T09:27:48.480Z,8.63
2017-08-18T09:30:16.721Z,12.77
2017-08-18T09:32:44.180Z,13.40
2017-08-18T09:35:11.656Z,16.27
2017-08-18T09:37:39.139Z,13.17
2017-08-18T09:40:06.679Z,14.07
2017-08-18T09:42:34.931Z,12.17
2017-08-18T09:45:03.231Z,12.57
2017-08-18T09:47:31.466Z,8.20
2017-08-18T09:50:10.828Z,9.17
2017-08-18T09:52:50.236Z,10.90
2017-08-18T09:55:29.602Z,12.03
2017-08-18T09:58:08.900Z,11.53
2017-08-18T10:00:36.375Z,11.80
2017-08-18T10:03:03.844Z,13.20
2017-08-18T10:05:31.320Z,12.47
2017-08-18T10:07:58.788Z,6.97
2017-08-18T10:10:27.032Z,11.57
2017-08-18T10:12:55.124Z,9.60
2017-08-18T10:15:23.364Z,8.10
2017-08-18T10:17:50.861Z,9.00
2017-08-18T10:20:19.087Z,11.70
2017-08-18T10:22:46.586Z,7.50
2017-08-18T10:25:14.048Z,8.03
2017-08-18T10:27:42.283Z,9.83
2017-08-18T10:30:10.294Z,4.50
2017-08-18T10:32:38.536Z,9.43
2017-08-18T10:35:06.008Z,4.80
2017-08-18T10:37:34.610Z,7.27
2017-08-18T10:40:02.876Z,8.93
2017-08-18T10:42:31.552Z,7.67
2017-08-18T10:44:59.123Z,4.73
2017-08-18T10:47:27.356Z,4.00
2017-08-18T10:49:54.824Z,3.73
2017-08-18T10:52:22.292Z,4.23
2017-08-18T10:54:49.761Z,5.80
2017-08-18T10:57:17.298Z,5.73
2017-08-18T10:59:44.874Z,3.40
2017-08-18T11:02:12.464Z,4.97
2017-08-18T11:04:39.950Z,5.60
2017-08-18T11:07:07.405Z,5.63
2017-08-18T11:09:35.447Z,5.60
2017-08-18T11:12:02.988Z,3.47
2017-08-18T11:14:31.256Z,6.30
2017-08-18T11:16:58.739Z,5.10
2017-08-18T11:19:26.285Z,5.00
2017-08-18T11:21:55.444Z,12.07
2017-08-18T11:24:23.239Z,7.03
2017-08-18T11:26:51.482Z,8.27
2017-08-18T11:29:18.967Z,4.50
2017-08-18T11:31:46.495Z,7.33
2017-08-18T11:34:13.957Z,8.77
2017-08-18T11:36:41.482Z,7.43
2017-08-18T11:39:08.997Z,10.07
2017-08-18T11:41:36.536Z,13.27
2017-08-18T11:44:04.016Z,9.00
2017-08-18T11:46:32.549Z,9.33
2017-08-18T11:49:00.018Z,8.33
2017-08-18T11:51:27.491Z,11.93
2017-08-18T11:53:55.896Z,11.10
2017-08-18T11:56:23.375Z,13.57
2017-08-18T11:58:50.843Z,20.87
2017-08-18T12:01:18.315Z,7.87
2017-08-18T12:03:45.792Z,7.50
2017-08-18T12:06:13.254Z,13.23
2017-08-18T12:08:40.715Z,12.50
2017-08-18T12:11:08.191Z,14.20
2017-08-18T12:13:36.412Z,9.43
2017-08-18T12:16:03.883Z,8.20
2017-08-18T12:18:31.348Z,22.10
2017-08-18T12:20:58.814Z,12.17
2017-08-18T12:23:26.408Z,15.03
2017-08-18T12:25:54.587Z,19.90
2017-08-18T12:28:22.051Z,13.17
2017-08-18T12:30:49.521Z,10.57
2017-08-18T12:33:16.986Z,17.33
2017-08-18T12:35:44.460Z,14.77
2017-08-18T12:38:12.056Z,14.93
2017-08-18T12:40:40.320Z,17.50
2017-08-18T12:43:07.787Z,15.63
2017-08-18T12:45:35.251Z,16.57
2017-08-18T12:48:03.455Z,14.30
2017-08-18T12:50:30.924Z,7.83
2017-08-18T12:52:58.377Z,19.73
2017-08-18T12:55:25.847Z,13.53
2017-08-18T12:57:53.325Z,11.37
2017-08-18T13:00:20.879Z,14.57
2017-08-18T13:02:48.371Z,17.03
2017-08-18T13:05:16.765Z,14.80
2017-08-18T13:07:44.280Z,17.33
2017-08-18T13:10:11.852Z,6.57
2017-08-18T13:12:40.091Z,18.47
2017-08-18T13:15:07.990Z,12.77
2017-08-18T13:17:35.505Z,13.30
2017-08-18T13:20:02.959Z,9.27
2017-08-18T13:22:30.435Z,10.07
2017-08-18T13:24:57.925Z,8.77
2017-08-18T13:27:26.196Z,9.73
2017-08-18T13:29:54.471Z,11.80
2017-08-18T13:32:22.708Z,15.60
2017-08-18T13:34:50.180Z,13.60
2017-08-18T13:37:17.666Z,12.53
2017-08-18T13:39:45.887Z,9.43
2017-08-18T13:42:13.357Z,12.60
2017-08-18T13:44:40.842Z,10.43
2017-08-18T13:47:09.080Z,11.60
2017-08-18T13:49:36.568Z,13.73
2017-08-18T13:52:04.036Z,16.10
2017-08-18T13:54:32.304Z,8.40
2017-08-18T13:57:00.567Z,14.50
2017-08-18T13:59:28.020Z,17.77
2017-08-18T14:01:55.501Z,12.50
2017-08-18T14:04:23.771Z,16.23
2017-08-18T14:06:52.384Z,11.60
2017-08-18T14:09:19.845Z,10.70
2017-08-18T14:11:47.343Z,14.03
2017-08-18T14:14:16.153Z,10.60
2017-08-18T14:16:43.612Z,13.27
2017-08-18T14:19:11.893Z,21.10
2017-08-18T14:21:40.136Z,17.57
2017-08-18T14:24:07.623Z,13.23
2017-08-18T14:26:41.589Z,12.53
2017-08-18T14:29:09.050Z,10.97
2017-08-18T14:31:36.511Z,11.43
2017-08-18T14:34:04.004Z,10.70
2017-08-18T14:36:32.229Z,12.67
2017-08-18T14:38:59.691Z,14.07
2017-08-18T14:41:27.202Z,11.00
2017-08-18T14:43:55.421Z,7.40
2017-08-18T14:46:22.894Z,16.93
2017-08-18T14:48:50.384Z,12.47
2017-08-18T14:51:18.654Z,15.77
2017-08-18T14:53:46.910Z,15.50
2017-08-18T14:56:14.371Z,11.70
2017-08-18T14:58:41.838Z,13.50
2017-08-18T15:01:09.337Z,14.57
2017-08-18T15:03:36.808Z,13.33
2017-08-18T15:06:04.271Z,21.83
2017-08-18T15:08:32.815Z,16.30
2017-08-18T15:11:00.284Z,22.07
2017-08-18T15:13:27.745Z,25.87
2017-08-18T15:15:55.255Z,14.33
2017-08-18T15:18:23.377Z,14.97
2017-08-18T15:20:50.853Z,12.43
2017-08-18T15:23:18.338Z,12.77
2017-08-18T15:25:46.610Z,12.23
2017-08-18T15:28:14.091Z,10.13
2017-08-18T15:30:42.373Z,15.77
2017-08-18T15:33:09.840Z,16.33
2017-08-18T15:35:37.303Z,19.93
2017-08-18T15:38:04.847Z,12.30
2017-08-18T15:40:32.312Z,10.77
2017-08-18T15:42:59.771Z,16.47
2017-08-18T15:45:27.253Z,20.20
2017-08-18T15:47:54.771Z,11.60
2017-08-18T15:50:23.033Z,17.10
2017-08-18T15:52:50.663Z,11.63
2017-08-18T15:55:18.157Z,19.27
2017-08-18T15:57:46.393Z,11.07
2017-08-18T16:00:13.880Z,13.53
2017-08-18T16:02:42.163Z,14.60
2017-08-18T16:05:10.440Z,8.60
2017-08-18T16:07:37.907Z,13.27
2017-08-18T16:10:05.393Z,10.07
2017-08-18T16:12:32.908Z,17.40
2017-08-18T16:15:01.156Z,10.73
2017-08-18T16:17:28.635Z,14.43
2017-08-18T16:19:56.120Z,11.43
2017-08-18T16:22:23.651Z,11.60
2017-08-18T16:24:51.102Z,11.57
2017-08-18T16:27:18.664Z,11.33
2017-08-18T16:29:46.134Z,11.97
2017-08-18T16:32:14.397Z,13.63
2017-08-18T16:34:42.572Z,18.50
2017-08-18T16:37:10.811Z,15.83
2017-08-18T16:39:38.308Z,16.63
2017-08-18T16:42:06.555Z,10.83
2017-08-18T16:44:34.161Z,13.30
2017-08-18T16:47:02.378Z,16.50
2017-08-18T16:49:29.851Z,11.43
2017-08-18T16:51:57.629Z,14.60
2017-08-18T16:54:25.096Z,14.37
2017-08-18T16:56:52.551Z,12.80
2017-08-18T16:59:21.388Z,9.60
2017-08-18T17:01:48.852Z,18.37
2017-08-18T17:04:16.363Z,11.03
2017-08-18T17:06:44.216Z,12.03
2017-08-18T17:09:12.502Z,14.03
2017-08-18T17:11:40.767Z,14.00
2017-08-18T17:14:09.008Z,15.97
2017-08-18T17:16:36.468Z,7.80
2017-08-18T17:19:04.056Z,11.50
2017-08-18T17:21:31.520Z,17.97
2017-08-18T17:23:59.789Z,21.07
2017-08-18T17:26:28.039Z,15.73
2017-08-18T17:28:55.499Z,14.77
2017-08-18T17:31:22.968Z,12.23
2017-08-18T17:33:50.443Z,14.80
2017-08-18T17:36:18.674Z,21.27
2017-08-18T17:38:46.184Z,24.37
2017-08-18T17:41:14.415Z,16.43
2017-08-18T17:43:42.721Z,7.93
2017-08-18T17:46:10.988Z,12.93
2017-08-18T17:48:38.453Z,16.63
2017-08-18T17:51:06.733Z,12.03
2017-08-18T17:53:34.282Z,16.30
2017-08-18T17:56:03.224Z,15.70
2017-08-18T17:58:30.728Z,12.67
2017-08-18T18:00:58.195Z,9.93
2017-08-18T18:03:26.432Z,10.53
2017-08-18T18:05:53.912Z,9.53
2017-08-18T18:08:21.388Z,11.10
2017-08-18T18:10:49.623Z,17.00
2017-08-18T18:13:17.088Z,12.13
2017-08-18T18:15:44.670Z,15.10
2017-08-18T18:18:12.939Z,20.70
2017-08-18T18:20:40.400Z,21.93
2017-08-18T18:23:08.645Z,26.83
2017-08-18T18:25:36.130Z,18.80
2017-08-18T18:28:04.369Z,29.37
2017-08-18T18:30:31.976Z,24.73
2017-08-18T18:33:00.240Z,23.27
2017-08-18T18:35:27.697Z,12.80
2017-08-18T18:37:55.939Z,29.00
2017-08-18T18:40:23.429Z,15.60
2017-08-18T18:42:50.892Z,27.20
2017-08-18T18:45:19.160Z,22.77
2017-08-18T18:47:46.719Z,15.27
2017-08-18T18:50:15.046Z,20.20
2017-08-18T18:52:42.511Z,24.77
2017-08-18T18:55:09.975Z,26.53
2017-08-18T18:57:37.457Z,14.93
2017-08-18T19:00:05.029Z,16.97
2017-08-18T19:02:33.259Z,25.60
2017-08-18T19:05:00.772Z,23.17
2017-08-18T19:07:29.016Z,21.00
2017-08-18T19:09:56.476Z,12.83
2017-08-18T19:12:23.958Z,12.27
2017-08-18T19:14:52.315Z,11.23
2017-08-18T19:17:19.779Z,8.80
2017-08-18T19:19:48.638Z,11.10
2017-08-18T19:22:16.106Z,11.73
2017-08-18T19:24:43.794Z,9.70
2017-08-18T19:27:12.055Z,5.93
2017-08-18T19:29:39.519Z,5.70
2017-08-18T19:32:07.079Z,7.77
2017-08-18T19:34:35.347Z,8.40
2017-08-18T19:37:03.153Z,8.00
2017-08-18T19:39:30.692Z,8.40
2017-08-18T19:41:58.984Z,10.97
2017-08-18T19:44:26.476Z,4.20
2017-08-18T19:46:53.951Z,12.30
2017-08-18T19:49:22.209Z,4.43
2017-08-18T19:51:49.742Z,11.10
2017-08-18T19:54:17.222Z,13.93
2017-08-18T19:56:44.716Z,5.77
2017-08-18T19:59:12.217Z,3.90
2017-08-18T20:01:39.777Z,7.03
2017-08-18T20:04:07.346Z,8.00
2017-08-18T20:06:34.871Z,9.20
2017-08-18T20:09:03.990Z,11.03
2017-08-18T20:11:31.571Z,5.57
2017-08-18T20:13:59.500Z,15.63
2017-08-18T20:16:26.970Z,10.00
2017-08-18T20:18:54.483Z,5.67
2017-08-18T20:21:21.998Z,6.23
2017-08-18T20:23:49.512Z,7.63
2017-08-18T20:26:17.744Z,5.97
2017-08-18T20:28:45.233Z,9.60
2017-08-18T20:31:12.860Z,9.10
2017-08-18T20:33:40.450Z,7.30
2017-08-18T20:36:08.011Z,20.53
2017-08-18T20:38:36.240Z,6.23
2017-08-18T20:41:03.737Z,11.67
2017-08-18T20:43:31.271Z,9.60
2017-08-18T20:45:58.846Z,13.23
2017-08-18T20:48:27.160Z,18.30
2017-08-18T20:50:54.698Z,8.90
2017-08-18T20:53:22.298Z,7.93
2017-08-18T20:55:49.895Z,9.47
2017-08-18T20:58:17.755Z,7.33
2017-08-18T21:00:46.389Z,12.00
2017-08-18T21:03:13.922Z,19.20
2017-08-18T21:05:41.745Z,8.50
2017-08-18T21:08:10.471Z,10.70
2017-08-18T21:10:38.925Z,7.47
2017-08-18T21:13:07.406Z,9.70
2017-08-18T21:15:35.073Z,10.60
2017-08-18T21:18:02.549Z,12.90
2017-08-18T21:20:30.274Z,10.23
2017-08-18T21:22:58.251Z,12.43
2017-08-18T21:25:25.826Z,8.83
2017-08-18T21:27:53.712Z,13.30
2017-08-18T21:30:21.889Z,9.97
2017-08-18T21:32:49.448Z,9.70
2017-08-18T21:35:17.033Z,13.23
2017-08-18T21:37:44.595Z,4.97
2017-08-18T21:40:12.115Z,15.87
2017-08-18T21:42:40.359Z,10.10
2017-08-18T21:45:07.853Z,9.73
2017-08-18T21:47:35.526Z,13.63
2017-08-18T21:50:03.007Z,9.53
2017-08-18T21:52:30.527Z,5.13
2017-08-18T21:54:57.988Z,5.80
2017-08-18T21:57:25.605Z,8.17
2017-08-18T21:59:53.107Z,11.53
2017-08-18T22:02:21.336Z,12.20
2017-08-18T22:04:48.830Z,7.83
2017-08-18T22:07:16.294Z,4.13
2017-08-18T22:09:44.510Z,9.87
2017-08-18T22:12:11.988Z,10.30
2017-08-18T22:14:39.475Z,5.87
2017-08-18T22:17:07.024Z,9.60
2017-08-18T22:19:34.504Z,4.10
2017-08-18T22:22:01.974Z,11.40
2017-08-18T22:24:29.440Z,14.30
2017-08-18T22:26:56.906Z,8.30
2017-08-18T22:29:24.415Z,4.20
2017-08-18T22:31:51.967Z,10.10
2017-08-18T22:34:19.440Z,5.23
2017-08-18T22:36:47.711Z,6.47
2017-08-18T22:39:15.176Z,4.60
2017-08-18T22:41:42.700Z,9.30
2017-08-18T22:44:10.181Z,3.33
2017-08-18T22:46:37.757Z,6.03
2017-08-18T22:49:05.987Z,5.53
2017-08-18T22:51:33.465Z,8.87
2017-08-18T22:54:00.924Z,14.50
2017-08-18T22:56:28.395Z,10.07
2017-08-18T22:58:56.655Z,8.43
2017-08-18T23:01:24.111Z,4.90
2017-08-18T23:03:51.591Z,5.57
2017-08-18T23:06:19.057Z,2.50
2017-08-18T23:08:46.507Z,5.57
2017-08-18T23:11:13.984Z,7.63
2017-08-18T23:13:41.476Z,11.60
2017-08-18T23:16:08.928Z,6.50
2017-08-18T23:18:36.398Z,6.90
2017-08-18T23:21:03.988Z,8.30
2017-08-18T23:23:32.207Z,7.63
2017-08-18T23:25:59.675Z,2.63
2017-08-18T23:28:27.136Z,5.03
2017-08-18T23:30:54.600Z,11.33
2017-08-18T23:33:22.095Z,9.53
2017-08-18T23:35:50.319Z,6.90
2017-08-18T23:38:17.788Z,18.70
2017-08-18T23:40:45.265Z,9.63
2017-08-18T23:43:12.722Z,9.23
2017-08-18T23:45:40.188Z,10.60
2017-08-18T23:48:08.460Z,7.67
2017-08-18T23:50:36.719Z,4.57
2017-08-18T23:53:04.186Z,5.90
2017-08-18T23:55:32.425Z,11.17
2017-08-18T23:57:59.891Z,12.27
